Hauptseite
METAR-TAF:

METAR-TAF

Flughäfen :

Farnborough Airfield

Farnborough, England

Breite: 51-17N, Länge: 000-46W, Höhe: 65 m

Beobachtung

Neuester Wetterbericht von vor 7 Stunden und 17 Minuten, um 18:50 UTC
Wind 9 kt aus West/Südwest
Temperatur 20°C
Luftfeuchtigkeit 73%
Luftdruck 1021 hPa
Sichtweite 10 km oder mehr
Aufgelockert bewölkt in der Höhe von 2500 ft
Durchbrochene Bewölkung in der Höhe von 3300 ft

METAR: EGLF 181850Z 24009KT 9999 SCT025 BKN033 20/15 Q1021

Zeit: 03:07 (02:07 UTC)

Prognose

Neuester Wetterbericht von vor 12 Stunden und 11 Minuten, um 13:56 UTC
Gültige Prognose vom 18 um 15 UTC bis 18 um 19 UTC
Wind 9 kt aus West/Südwest
Sichtweite 10 km oder mehr
Aufgelockert bewölkt in der Höhe von 3000 ft

TAF: EGLF 181356Z 1815/1819 24009KT 9999 SCT030

Wetterbeobachtungen und Prognosen von mehr als 4000 Flughäfen (METAR und TAF Bericht).

Die verfügbaren Stationen werden durch gelbe und rote Markierungen auf der Karte dargestellt.

Führen Sie die Maus auf sie, um den Namen der Station zu sehen.

Darauf klicken, um die Beobachtung von Wetterbeobachtungen und Prognosen zu sehen.

Um die Karte zu ändern : klicken Sie auf den grünen Tasten mit einem schwarzen Kreuz Zum Vergrößern, auf den grünen Button mit einem Gedankenstrich zu verkleinern, oder auf die grünen Pfeile für benachbarte Karten.


METAR-TAF: